Time;durP1;ratioP1;P1;durP2;ratioP2;P2;SDS_P1;SDS_P2;PMS_P1;PMS_P2;Temp;Humidity;BMP_temperature;BMP_pressure;BME280_temperature;BME280_humidity;BME280_pressure;Samples;Min_cycle;Max_cycle;Signal;HPM_P1;HPM_P2
2022/01/04 00:00:13;;;;;;;22.10;11.50;;;;;;;6.31;93.69;100011.56;4421660;32;20538;-71
2022/01/04 00:02:41;;;;;;;23.17;12.00;;;;;;;6.48;92.88;100020.25;4421936;32;20077;-71
2022/01/04 00:05:10;;;;;;;20.85;11.80;;;;;;;6.43;93.05;100011.53;4421662;32;20120;-71
2022/01/04 00:07:37;;;;;;;23.12;12.27;;;;;;;6.28;93.76;100008.94;4421526;32;20555;-71
2022/01/04 00:10:08;;;;;;;21.52;11.02;;;;;;;6.30;93.94;100009.81;4421595;32;20562;-71
2022/01/04 00:15:22;;;;;;;22.45;11.80;;;;;;;6.49;92.92;100019.38;4421677;32;20089;-71
2022/01/04 00:17:50;;;;;;;25.12;12.23;;;;;;;6.31;94.10;100014.19;4421518;32;20199;-71
2022/01/04 00:20:17;;;;;;;20.50;11.57;;;;;;;6.34;93.87;100006.31;4421533;32;20105;-71
2022/01/04 00:22:44;;;;;;;30.33;12.82;;;;;;;6.30;94.33;100008.06;4421600;32;20472;-71
2022/01/04 00:25:12;;;;;;;19.27;11.38;;;;;;;6.33;94.20;100000.22;4421012;32;20157;-71
2022/01/04 00:27:39;;;;;;;21.42;12.20;;;;;;;6.25;94.90;100007.19;4421315;32;20477;-71
2022/01/04 00:30:07;;;;;;;21.50;12.27;;;;;;;6.31;94.71;100007.19;4421529;32;20131;-71
2022/01/04 00:32:34;;;;;;;22.30;12.45;;;;;;;6.29;94.85;99994.97;4421482;32;20085;-71
2022/01/04 00:35:01;;;;;;;21.50;12.20;;;;;;;6.45;94.02;100004.56;4421350;32;20409;-71
2022/01/04 00:37:28;;;;;;;23.80;12.77;;;;;;;6.36;94.49;100007.19;4421418;32;20894;-72
2022/01/04 00:39:57;;;;;;;27.98;12.65;;;;;;;6.28;95.18;100012.41;4421420;32;20112;-71
2022/01/04 00:42:25;;;;;;;26.45;12.57;;;;;;;6.18;96.05;100008.06;4421568;32;20115;-71
2022/01/04 00:44:52;;;;;;;24.55;12.73;;;;;;;6.22;95.94;100007.22;4421355;32;20157;-71
2022/01/04 00:47:26;;;;;;;23.70;13.00;;;;;;;6.29;95.47;100010.66;4421232;32;20550;-71
2022/01/04 00:49:53;;;;;;;21.67;11.95;;;;;;;6.33;95.01;100002.84;4421464;32;20452;-71
2022/01/04 00:52:21;;;;;;;22.50;12.48;;;;;;;6.32;94.98;100006.31;4421165;32;20086;-71
2022/01/04 00:54:48;;;;;;;21.83;11.80;;;;;;;6.18;96.37;100000.22;4421195;32;20128;-72
2022/01/04 00:57:15;;;;;;;28.42;12.70;;;;;;;6.49;94.37;99997.59;4421254;32;20097;-71
2022/01/04 00:59:42;;;;;;;20.48;11.45;;;;;;;6.29;95.67;99988.03;4421102;32;20575;-71
2022/01/04 01:02:09;;;;;;;22.48;12.57;;;;;;;6.31;95.44;99991.50;4421151;32;20090;-72
2022/01/04 01:04:37;;;;;;;24.08;11.52;;;;;;;6.15;97.29;99993.25;4421178;32;20158;-71
2022/01/04 01:07:04;;;;;;;27.67;12.68;;;;;;;6.20;96.92;99996.72;4421174;32;20169;-72
2022/01/04 01:09:36;;;;;;;28.73;14.23;;;;;;;6.28;97.35;99998.47;4421123;32;20102;-72
2022/01/04 01:12:03;;;;;;;31.92;14.35;;;;;;;6.22;97.78;99988.91;4421226;32;20107;-72
2022/01/04 01:14:31;;;;;;;26.70;13.88;;;;;;;6.19;97.78;99991.50;4421057;32;20089;-71
2022/01/04 01:16:58;;;;;;;26.05;13.48;;;;;;;6.27;96.85;99995.00;4421069;32;20155;-72
2022/01/04 01:19:25;;;;;;;28.62;12.93;;;;;;;6.28;96.25;99994.09;4421039;32;20131;-71
2022/01/04 01:21:52;;;;;;;27.15;13.75;;;;;;;6.28;95.92;99996.72;4421270;32;20124;-72
2022/01/04 01:24:19;;;;;;;26.58;13.65;;;;;;;6.30;96.64;99988.88;4421399;32;20097;-72
2022/01/04 01:26:46;;;;;;;21.83;11.95;;;;;;;6.33;96.27;99988.88;4421052;32;20128;-71
2022/01/04 01:29:14;;;;;;;22.70;12.32;;;;;;;6.39;96.16;99983.63;4421039;32;20153;-72
2022/01/04 01:31:41;;;;;;;19.10;10.80;;;;;;;6.36;96.48;99986.25;4420958;32;20118;-72
2022/01/04 01:34:08;;;;;;;21.87;12.43;;;;;;;6.40;96.54;99980.16;4420952;32;20081;-72
2022/01/04 01:36:35;;;;;;;27.52;13.18;;;;;;;6.27;97.62;99978.41;4420652;32;20089;-72
2022/01/04 01:39:03;;;;;;;20.70;11.70;;;;;;;6.31;96.51;99967.06;4421069;32;20109;-72
2022/01/04 01:41:30;;;;;;;24.00;11.80;;;;;;;6.28;96.88;99962.72;4421010;32;20484;-71
2022/01/04 01:43:57;;;;;;;24.83;13.25;;;;;;;6.19;98.08;99966.22;4420955;32;20524;-71
2022/01/04 01:46:24;;;;;;;22.33;12.45;;;;;;;6.36;96.60;99973.16;4420978;32;20504;-71
2022/01/04 01:48:52;;;;;;;21.35;12.20;;;;;;;6.31;97.15;99960.09;4420882;32;20096;-72
2022/01/04 01:51:20;;;;;;;22.73;11.23;;;;;;;6.24;97.70;99953.13;4420782;32;20418;-72
2022/01/04 01:53:47;;;;;;;22.30;12.20;;;;;;;6.22;97.89;99950.53;4420720;32;20086;-72
2022/01/04 01:56:14;;;;;;;21.92;12.37;;;;;;;6.23;97.26;99938.31;4420770;32;20125;-72
2022/01/04 01:58:42;;;;;;;20.02;11.57;;;;;;;6.26;97.24;99940.06;4420611;32;20161;-71
2022/01/04 02:01:09;;;;;;;25.55;12.35;;;;;;;6.22;97.09;99933.97;4420674;32;20504;-72
2022/01/04 02:03:38;;;;;;;22.87;12.60;;;;;;;6.18;97.10;99926.97;4420523;32;20136;-72
2022/01/04 02:06:06;;;;;;;22.15;12.52;;;;;;;6.17;97.70;99914.78;4420582;32;20121;-72
2022/01/04 02:08:34;;;;;;;25.42;13.02;;;;;;;6.20;97.18;99909.53;4420423;32;20631;-72
2022/01/04 02:11:02;;;;;;;22.77;12.23;;;;;;;5.99;98.75;99893.00;4420480;32;20081;-72
2022/01/04 02:13:29;;;;;;;20.75;11.38;;;;;;;5.99;98.40;99889.50;4420486;32;20135;-72
2022/01/04 02:15:58;;;;;;;22.85;12.45;;;;;;;5.96;98.99;99884.28;4420202;32;20172;-72
2022/01/04 02:18:25;;;;;;;23.62;12.15;;;;;;;5.91;99.10;99860.72;4420514;32;20105;-72
2022/01/04 02:20:52;;;;;;;21.08;11.25;;;;;;;5.92;99.32;99846.81;4420611;32;20124;-72
2022/01/04 02:23:19;;;;;;;21.83;11.88;;;;;;;5.95;100.00;99838.97;4420426;32;20089;-72
2022/01/04 02:25:48;;;;;;;20.45;12.07;;;;;;;5.95;100.00;99832.87;4420546;32;20467;-71
2022/01/04 02:28:20;;;;;;;21.52;11.63;;;;;;;5.89;100.00;99838.06;4420368;32;20546;-72
2022/01/04 02:30:48;;;;;;;18.58;10.77;;;;;;;5.91;100.00;99836.34;4420243;32;20080;-72
2022/01/04 02:33:15;;;;;;;21.33;11.60;;;;;;;6.06;99.10;99840.69;4420266;32;20149;-71
2022/01/04 02:35:42;;;;;;;22.87;12.05;;;;;;;5.99;99.50;99842.44;4420271;32;20129;-72
2022/01/04 02:38:10;;;;;;;20.60;10.77;;;;;;;6.29;97.78;99846.72;4420199;32;20823;-72
2022/01/04 02:40:38;;;;;;;21.10;12.25;;;;;;;6.28;97.43;99844.09;4420372;32;20140;-71
2022/01/04 02:43:05;;;;;;;23.33;11.35;;;;;;;6.44;96.07;99845.81;4420131;32;20098;-71
2022/01/04 02:45:32;;;;;;;23.05;11.48;;;;;;;6.12;97.39;99844.16;4420084;32;20160;-72
2022/01/04 02:48:00;;;;;;;18.02;10.55;;;;;;;5.99;98.52;99858.13;4420517;32;20093;-71
2022/01/04 02:50:28;;;;;;;22.20;11.38;;;;;;;6.06;97.77;99862.47;4424830;32;20092;-72
2022/01/04 02:52:55;;;;;;;19.05;11.30;;;;;;;6.36;97.21;99856.31;4425151;32;20097;-72
2022/01/04 02:55:23;;;;;;;24.65;12.60;;;;;;;6.08;98.07;99841.53;4425205;32;20497;-71
2022/01/04 02:57:50;;;;;;;19.45;11.48;;;;;;;5.95;99.65;99838.09;4425221;32;20093;-72
2022/01/04 03:00:18;;;;;;;20.08;11.20;;;;;;;6.02;99.57;99844.19;4425082;32;20119;-72
2022/01/04 03:02:45;;;;;;;23.15;11.35;;;;;;;6.12;98.63;99844.16;4424970;32;20144;-72
2022/01/04 03:05:13;;;;;;;21.60;11.48;;;;;;;6.06;98.77;99844.16;4425180;32;20462;-72
2022/01/04 03:07:40;;;;;;;17.80;10.40;;;;;;;6.32;97.93;99838.84;4425082;32;20552;-72
2022/01/04 03:10:08;;;;;;;18.33;10.63;;;;;;;6.18;98.74;99835.41;4424852;32;20097;-72
2022/01/04 03:12:39;;;;;;;18.42;10.35;;;;;;;6.38;97.42;99830.97;4424818;32;20149;-71
2022/01/04 03:15:06;;;;;;;17.33;10.52;;;;;;;6.27;98.06;99819.69;4424953;32;20090;-72
2022/01/04 03:17:33;;;;;;;20.08;10.77;;;;;;;6.17;98.61;99817.97;4424871;32;20456;-72
2022/01/04 03:20:01;;;;;;;21.15;11.12;;;;;;;6.01;99.28;99811.94;4424810;32;20115;-72
2022/01/04 03:22:28;;;;;;;17.58;10.18;;;;;;;5.92;100.00;99814.53;4424880;32;20132;-72
2022/01/04 03:24:56;;;;;;;18.25;9.98;;;;;;;5.85;99.31;99815.41;4424754;32;20113;-72
2022/01/04 03:27:23;;;;;;;18.45;10.23;;;;;;;5.99;98.60;99813.66;4424763;32;20093;-72
2022/01/04 03:29:50;;;;;;;18.92;10.43;;;;;;;5.92;98.26;99809.31;4424814;32;20119;-72
2022/01/04 03:32:17;;;;;;;17.20;9.70;;;;;;;5.62;100.00;99810.22;4424654;32;20772;-72
2022/01/04 03:34:44;;;;;;;19.25;10.77;;;;;;;5.48;100.00;99807.62;4424634;32;20132;-72
2022/01/04 03:37:11;;;;;;;21.23;10.15;;;;;;;5.44;100.00;99800.63;4424644;32;20541;-72
2022/01/04 03:39:39;;;;;;;22.52;11.98;;;;;;;5.48;99.92;99791.94;4424936;32;20078;-72
2022/01/04 03:42:06;;;;;;;18.67;10.68;;;;;;;5.40;100.00;99785.84;4424612;32;20131;-72
2022/01/04 03:44:33;;;;;;;21.48;11.63;;;;;;;5.34;100.00;99785.88;4424528;32;20090;-72
2022/01/04 03:47:01;;;;;;;23.23;12.37;;;;;;;5.31;100.00;99776.28;4424489;32;20113;-72
2022/01/04 03:49:28;;;;;;;21.35;11.38;;;;;;;5.27;100.00;99788.47;4424598;32;20100;-72
2022/01/04 03:51:56;;;;;;;21.75;11.68;;;;;;;5.33;100.00;99791.94;4424507;32;20521;-72
2022/01/04 03:54:23;;;;;;;18.42;10.55;;;;;;;5.31;100.00;99781.50;4424314;32;20173;-72
2022/01/04 03:56:50;;;;;;;20.37;11.18;;;;;;;5.37;100.00;99784.12;4424468;32;20105;-72
2022/01/04 03:59:17;;;;;;;22.75;12.27;;;;;;;5.35;99.95;99779.75;4424689;32;20089;-72
2022/01/04 04:01:47;;;;;;;18.05;10.65;;;;;;;5.26;100.00;99771.06;4421619;32;20153;-72
2022/01/04 04:04:16;;;;;;;23.08;11.32;;;;;;;5.07;100.00;99773.66;4421552;32;20542;-72
2022/01/04 04:06:43;;;;;;;19.05;10.60;;;;;;;5.03;100.00;99768.44;4421680;32;20498;-72
2022/01/04 04:09:10;;;;;;;20.48;11.43;;;;;;;4.93;100.00;99763.22;4421590;32;20484;-72
2022/01/04 04:11:37;;;;;;;20.62;11.50;;;;;;;4.87;100.00;99752.75;4421541;32;20524;-72
2022/01/04 04:14:04;;;;;;;24.60;11.23;;;;;;;4.87;100.00;99748.41;4421657;32;20464;-72
2022/01/04 04:16:33;;;;;;;18.95;10.55;;;;;;;4.85;100.00;99752.75;4421513;32;20097;-72
2022/01/04 04:19:01;;;;;;;22.67;10.68;;;;;;;5.04;100.00;99757.13;4421494;32;20427;-71
2022/01/04 04:21:28;;;;;;;19.12;11.00;;;;;;;5.02;100.00;99768.44;4421586;32;20550;-72
2022/01/04 04:23:55;;;;;;;19.40;10.93;;;;;;;4.95;100.00;99762.34;4421570;32;20175;-72
2022/01/04 04:26:22;;;;;;;19.23;11.25;;;;;;;4.81;100.00;99758.84;4421614;32;20199;-72
2022/01/04 04:28:49;;;;;;;20.17;10.63;;;;;;;4.82;100.00;99744.06;4421368;32;20145;-72
2022/01/04 04:31:17;;;;;;;20.45;10.50;;;;;;;4.87;100.00;99742.31;4421513;32;20116;-71
2022/01/04 04:33:44;;;;;;;19.37;11.18;;;;;;;4.82;100.00;99754.50;4421191;32;20090;-71
2022/01/04 04:36:11;;;;;;;17.95;11.12;;;;;;;4.72;100.00;99736.22;4421388;32;20105;-72
2022/01/04 04:38:38;;;;;;;19.83;10.15;;;;;;;4.72;100.00;99736.22;4421412;32;20153;-72
2022/01/04 04:41:06;;;;;;;17.25;9.80;;;;;;;4.78;100.00;99736.22;4421176;32;20180;-72
2022/01/04 04:43:33;;;;;;;15.32;9.30;;;;;;;4.75;100.00;99740.56;4422203;32;20121;-72
2022/01/04 04:46:00;;;;;;;21.42;10.85;;;;;;;4.65;100.00;99730.97;4422225;32;20135;-72
2022/01/04 04:48:28;;;;;;;20.95;10.07;;;;;;;4.69;100.00;99730.09;4422254;32;20664;-72
2022/01/04 04:50:55;;;;;;;20.30;10.80;;;;;;;4.63;100.00;99728.38;4422068;32;20113;-72
2022/01/04 04:53:22;;;;;;;18.77;10.23;;;;;;;4.53;100.00;99729.22;4421988;32;20768;-72
2022/01/04 04:55:50;;;;;;;22.70;10.50;;;;;;;4.47;100.00;99729.22;4422477;31;20209;-72
2022/01/04 04:58:17;;;;;;;16.70;9.77;;;;;;;4.44;100.00;99714.41;4421982;32;20102;-72
2022/01/04 05:00:44;;;;;;;18.17;9.45;;;;;;;4.36;100.00;99712.66;4421334;32;20090;-72
2022/01/04 05:03:12;;;;;;;19.27;10.07;;;;;;;4.37;100.00;99709.19;4418120;32;20237;-72
2022/01/04 05:05:39;;;;;;;18.23;9.32;;;;;;;4.43;100.00;99704.00;4421566;32;20093;-72
2022/01/04 05:08:06;;;;;;;19.87;10.95;;;;;;;4.36;100.00;99703.09;4421289;32;20454;-72
2022/01/04 05:10:33;;;;;;;16.17;9.20;;;;;;;4.31;100.00;99702.19;4421348;32;20127;-73
2022/01/04 05:13:00;;;;;;;18.05;9.88;;;;;;;4.14;100.00;99710.00;4420543;32;20105;-73
2022/01/04 05:15:27;;;;;;;16.40;9.82;;;;;;;4.07;100.00;99703.03;4420902;32;20564;-73
2022/01/04 05:17:55;;;;;;;17.95;9.65;;;;;;;4.15;100.00;99709.13;4421049;32;20157;-73
2022/01/04 05:20:22;;;;;;;17.27;9.43;;;;;;;4.24;100.00;99703.94;4420546;32;20503;-73
2022/01/04 05:22:49;;;;;;;18.98;10.30;;;;;;;4.26;100.00;99709.16;4421084;32;20475;-73
2022/01/04 05:25:17;;;;;;;16.45;9.05;;;;;;;4.13;100.00;99710.84;4420970;32;20416;-73
2022/01/04 05:27:44;;;;;;;20.33;9.65;;;;;;;4.12;100.00;99708.25;4421184;32;20898;-73
2022/01/04 05:30:11;;;;;;;19.70;10.32;;;;;;;4.12;100.00;99716.06;4420892;32;20140;-73
2022/01/04 05:32:38;;;;;;;15.95;9.38;;;;;;;4.13;100.00;99702.16;4420940;32;20534;-73
2022/01/04 05:35:06;;;;;;;19.45;9.38;;;;;;;3.98;100.00;99693.41;4420796;32;20512;-73
2022/01/04 05:37:33;;;;;;;17.73;9.30;;;;;;;3.89;100.00;99682.09;4420989;32;20483;-73
2022/01/04 05:40:01;;;;;;;20.17;9.20;;;;;;;3.90;100.00;99682.09;4421000;32;20181;-73
2022/01/04 05:42:28;;;;;;;17.15;8.57;;;;;;;3.95;100.00;99671.69;4420739;32;20480;-73
2022/01/04 05:44:55;;;;;;;17.35;9.48;;;;;;;3.91;100.00;99668.19;4420813;32;20542;-73
2022/01/04 05:47:24;;;;;;;17.87;9.80;;;;;;;4.08;100.00;99670.88;4420734;32;20402;-73
2022/01/04 05:49:53;;;;;;;19.87;10.68;;;;;;;4.08;100.00;99663.03;4420562;32;20108;-73
2022/01/04 05:52:20;;;;;;;18.90;9.60;;;;;;;4.05;100.00;99652.59;4420762;32;20124;-72
2022/01/04 05:54:49;;;;;;;19.55;9.85;;;;;;;3.89;100.00;99649.09;4420779;32;20114;-72
2022/01/04 05:57:16;;;;;;;19.65;9.85;;;;;;;3.90;100.00;99642.16;4420537;32;20458;-72
2022/01/04 05:59:43;;;;;;;21.52;11.55;;;;;;;3.74;100.00;99639.47;4420762;32;20124;-72
2022/01/04 06:02:11;;;;;;;20.88;10.68;;;;;;;3.71;100.00;99642.09;4420518;32;20149;-72
2022/01/04 06:04:38;;;;;;;18.92;10.07;;;;;;;3.55;100.00;99646.34;4420514;32;20165;-72
2022/01/04 06:07:06;;;;;;;20.67;10.07;;;;;;;3.55;100.00;99659.38;4420527;32;20081;-72
2022/01/04 06:09:42;;;;;;;20.73;10.05;;;;;;;3.87;100.00;99657.78;4420461;32;20110;-72
2022/01/04 06:15:01;;;;;;;21.87;11.45;;;;;;;3.69;100.00;99655.97;4420635;32;20120;-72
2022/01/04 06:17:31;;;;;;;18.98;10.02;;;;;;;3.46;100.00;99651.50;4420199;32;20144;-72
2022/01/04 06:19:59;;;;;;;17.62;11.02;;;;;;;3.30;100.00;99649.69;4420510;32;20127;-72
2022/01/04 06:22:28;;;;;;;20.65;11.07;;;;;;;3.25;100.00;99640.97;4425026;32;20140;-72
2022/01/04 06:24:56;;;;;;;25.08;12.43;;;;;;;3.38;100.00;99647.12;4425918;32;20121;-72
2022/01/04 06:27:24;;;;;;;25.92;12.10;;;;;;;3.25;100.00;99641.88;4422661;32;20089;-72
2022/01/04 06:29:51;;;;;;;24.92;11.80;;;;;;;3.36;100.00;99631.50;4431368;32;20105;-72
2022/01/04 06:32:18;;;;;;;26.35;15.05;;;;;;;3.26;100.00;99630.59;4435453;32;20180;-72
2022/01/04 06:34:45;;;;;;;93.97;35.03;;;;;;;3.20;100.00;99624.47;4427499;32;20135;-71
2022/01/04 06:37:13;;;;;;;60.00;25.45;;;;;;;3.20;100.00;99617.53;4430672;32;20077;-72
2022/01/04 06:39:41;;;;;;;62.80;26.05;;;;;;;3.21;100.00;99603.63;4421294;32;20173;-74
2022/01/04 06:42:09;;;;;;;64.45;27.73;;;;;;;3.26;100.00;99599.34;4422995;31;20089;-74
2022/01/04 06:44:37;;;;;;;42.83;19.05;;;;;;;3.34;100.00;99600.25;4434716;31;20460;-73
2022/01/04 06:47:05;;;;;;;39.63;18.45;;;;;;;3.27;100.00;99595.88;4434762;31;20117;-74
2022/01/04 06:49:32;;;;;;;34.03;16.40;;;;;;;3.15;100.00;99605.37;4434494;32;20119;-74
2022/01/04 06:52:05;;;;;;;34.30;15.50;;;;;;;3.18;100.00;99594.94;4434863;32;20160;-73
2022/01/04 06:54:32;;;;;;;26.10;13.13;;;;;;;3.27;100.00;99581.97;4422918;32;20097;-73
2022/01/04 06:56:59;;;;;;;30.80;14.23;;;;;;;3.38;100.00;99595.06;4419809;32;20090;-74
2022/01/04 06:59:27;;;;;;;25.37;13.68;;;;;;;3.41;100.00;99590.72;4420071;32;20188;-73
2022/01/04 07:01:54;;;;;;;29.23;15.77;;;;;;;3.54;100.00;99595.13;4419776;32;20388;-74
2022/01/04 07:04:21;;;;;;;25.58;13.25;;;;;;;3.67;100.00;99589.94;4419817;32;20220;-73
2022/01/04 07:06:49;;;;;;;31.90;13.70;;;;;;;3.97;100.00;99599.59;4420108;32;20213;-72
2022/01/04 07:09:16;;;;;;;29.58;13.57;;;;;;;3.80;100.00;99589.13;4419645;32;20116;-73
2022/01/04 07:11:43;;;;;;;32.00;14.43;;;;;;;3.99;100.00;99590.91;4419795;32;20173;-73
2022/01/04 07:14:10;;;;;;;25.23;14.55;;;;;;;4.06;100.00;99591.78;4419867;32;20839;-73
2022/01/04 07:16:37;;;;;;;28.62;12.75;;;;;;;4.19;100.00;99598.75;4421404;32;20093;-73
2022/01/04 07:19:04;;;;;;;30.52;15.15;;;;;;;4.29;100.00;99605.72;4421507;32;20090;-74
2022/01/04 07:21:34;;;;;;;41.37;19.90;;;;;;;4.60;99.46;99612.72;4420073;32;20157;-73
2022/01/04 07:24:01;;;;;;;42.17;18.45;;;;;;;4.24;100.00;99611.78;4425787;32;20164;-74
2022/01/04 07:26:28;;;;;;;32.83;16.48;;;;;;;4.34;100.00;99615.28;4435413;32;20089;-74
2022/01/04 07:28:56;;;;;;;28.20;13.48;;;;;;;4.52;100.00;99625.72;4435282;32;20201;-74
2022/01/04 07:31:24;;;;;;;22.85;13.32;;;;;;;4.60;100.00;99620.53;4434952;32;20132;-73
2022/01/04 07:33:51;;;;;;;28.10;12.48;;;;;;;4.73;100.00;99615.28;4435331;32;20181;-73
2022/01/04 07:36:18;;;;;;;23.70;12.73;;;;;;;4.77;100.00;99621.38;4437072;31;20161;-73
2022/01/04 07:38:46;;;;;;;56.08;23.27;;;;;;;4.89;100.00;99620.50;4423375;31;20128;-74
2022/01/04 07:41:13;;;;;;;30.95;14.57;;;;;;;4.94;100.00;99609.16;4429008;32;20096;-73
2022/01/04 07:43:40;;;;;;;25.67;13.25;;;;;;;5.10;100.00;99603.94;4429291;32;20109;-73
2022/01/04 07:46:07;;;;;;;27.48;14.85;;;;;;;5.20;98.95;99603.03;4433314;32;20109;-73
2022/01/04 07:48:34;;;;;;;53.28;18.98;;;;;;;5.34;97.94;99592.56;4438322;32;20118;-73
2022/01/04 07:51:02;;;;;;;47.92;20.02;;;;;;;5.54;98.05;99592.47;4428937;31;20518;-71
2022/01/04 07:53:30;;;;;;;33.08;15.27;;;;;;;5.68;98.13;99581.06;4422060;32;20105;-73
2022/01/04 07:55:57;;;;;;;28.20;13.00;;;;;;;5.83;98.51;99590.59;4425768;32;20089;-72
2022/01/04 07:58:25;;;;;;;21.15;10.85;;;;;;;6.19;95.51;99584.28;4423843;32;20499;-73
2022/01/04 08:00:53;;;;;;;19.92;10.43;;;;;;;6.13;95.82;99576.47;4421594;32;20105;-73
2022/01/04 08:03:21;;;;;;;18.45;9.48;;;;;;;6.25;95.46;99574.66;4421881;32;20459;-73
2022/01/04 08:05:55;;;;;;;14.30;8.18;;;;;;;6.54;94.41;99574.44;4421777;32;20158;-73
2022/01/04 08:08:22;;;;;;;13.18;7.82;;;;;;;6.47;94.53;99571.00;4432688;32;20544;-73
2022/01/04 08:10:51;;;;;;;15.20;7.80;;;;;;;6.28;95.57;99570.25;4437112;32;20550;-73
2022/01/04 08:13:19;;;;;;;14.70;7.65;;;;;;;6.36;95.11;99564.97;4428271;32;20113;-74
2022/01/04 08:15:46;;;;;;;12.20;7.18;;;;;;;6.45;95.21;99564.91;4426842;32;20082;-73
2022/01/04 08:18:13;;;;;;;11.50;6.90;;;;;;;6.74;93.36;99556.78;4428067;32;20443;-73
2022/01/04 08:20:40;;;;;;;15.80;8.35;;;;;;;6.69;93.21;99551.59;4429546;32;20093;-73
2022/01/04 08:23:13;;;;;;;10.88;6.20;;;;;;;6.69;93.29;99543.75;4429491;32;20109;-73
2022/01/04 08:25:40;;;;;;;11.30;6.85;;;;;;;6.77;92.52;99540.19;4426110;32;20172;-74
2022/01/04 08:28:10;;;;;;;20.55;10.75;;;;;;;6.79;92.87;99535.81;4430130;32;20119;-72
2022/01/04 08:30:37;;;;;;;20.30;10.77;;;;;;;6.84;93.04;99540.09;4427112;32;20089;-74
2022/01/04 08:33:13;;;;;;;17.55;10.55;;;;;;;7.04;92.15;99531.19;4428649;32;20136;-74
2022/01/04 08:35:41;;;;;;;21.48;11.73;;;;;;;7.25;92.10;99519.59;4427455;32;20098;-75
2022/01/04 08:38:08;;;;;;;26.50;11.25;;;;;;;7.55;89.33;99523.56;4426731;32;20113;-73
2022/01/04 08:40:36;;;;;;;23.77;11.07;;;;;;;7.46;89.48;99529.81;4417549;31;20527;-71
2022/01/04 08:43:05;;;;;;;19.95;11.02;;;;;;;7.57;89.07;99527.91;4413338;31;20175;-73
2022/01/04 08:45:34;;;;;;;18.60;10.55;;;;;;;7.43;89.14;99532.47;4428614;31;20116;-72
2022/01/04 08:48:04;;;;;;;18.92;10.82;;;;;;;7.48;89.82;99532.38;4428361;32;20093;-72
2022/01/04 08:50:31;;;;;;;20.80;11.30;;;;;;;7.48;88.75;99538.50;4426592;32;20168;-73
2022/01/04 08:52:58;;;;;;;22.05;11.12;;;;;;;7.53;89.96;99531.47;4429853;32;20097;-73
2022/01/04 08:55:26;;;;;;;17.35;9.80;;;;;;;7.56;89.89;99530.53;4422676;32;20113;-73
2022/01/04 08:57:53;;;;;;;15.93;10.48;;;;;;;7.73;88.87;99527.69;4429310;32;20161;-72
2022/01/04 09:00:20;;;;;;;13.50;7.87;;;;;;;7.64;88.40;99526.06;4436363;32;20475;-72
2022/01/04 09:02:47;;;;;;;16.92;9.07;;;;;;;7.85;88.53;99506.53;4436571;31;20137;-73
2022/01/04 09:05:15;;;;;;;13.48;7.93;;;;;;;7.92;88.16;99500.31;4436396;31;20145;-72
2022/01/04 09:07:42;;;;;;;11.27;7.70;;;;;;;8.09;86.68;99495.66;4436418;32;20104;-73
2022/01/04 09:10:10;;;;;;;9.10;6.22;;;;;;;8.08;87.25;99491.28;4436490;32;20153;-72
2022/01/04 09:13:05;;;;;;;9.60;6.20;;;;;;;8.19;86.17;99506.00;4436577;31;20189;-72
2022/01/04 09:20:45;;;;;;;9.80;5.78;;;;;;;8.49;85.45;99491.53;4464633;31;20131;-73
2022/01/04 09:23:18;;;;;;;6.78;5.05;;;;;;;8.31;85.79;99479.56;4431292;32;20108;-73
2022/01/04 09:25:46;;;;;;;10.63;5.40;;;;;;;8.22;85.95;99475.31;4433326;32;20153;-73
2022/01/04 09:28:15;;;;;;;9.25;5.62;;;;;;;8.15;86.54;99473.69;4436308;32;20182;-72
2022/01/04 09:30:45;;;;;;;15.43;5.62;;;;;;;8.19;86.39;99475.37;4436132;32;20089;-73
2022/01/04 09:33:12;;;;;;;9.65;5.37;;;;;;;8.15;86.97;99466.69;4436641;32;20088;-72
2022/01/04 09:35:41;;;;;;;9.15;5.20;;;;;;;8.28;86.92;99463.88;4436217;32;20085;-73
2022/01/04 09:38:09;;;;;;;9.73;5.05;;;;;;;8.09;87.70;99468.53;4421471;31;20098;-71
2022/01/04 09:40:37;;;;;;;7.85;5.22;;;;;;;8.04;87.91;99458.13;4421532;32;20108;-73
2022/01/04 09:43:06;;;;;;;9.25;5.40;;;;;;;8.01;88.73;99445.06;4420938;32;20535;-73
2022/01/04 09:45:34;;;;;;;9.45;5.70;;;;;;;8.26;87.92;99435.00;4421081;31;20434;-71
2022/01/04 09:48:03;;;;;;;10.38;6.18;;;;;;;8.15;88.19;99437.81;4425738;32;20120;-73
2022/01/04 09:50:35;;;;;;;9.73;5.37;;;;;;;8.32;88.00;99428.78;4426286;31;20128;-71
2022/01/04 09:53:02;;;;;;;10.95;5.35;;;;;;;8.76;86.21;99421.84;4432509;32;21003;-71
2022/01/04 09:55:30;;;;;;;11.45;5.90;;;;;;;8.83;87.05;99405.97;4428205;32;20119;-72
2022/01/04 09:57:57;;;;;;;7.95;5.37;;;;;;;9.26;85.70;99391.03;4430487;32;20101;-72
2022/01/04 10:00:24;;;;;;;18.23;7.25;;;;;;;9.71;83.97;99381.19;4434154;32;20085;-72
2022/01/04 10:02:52;;;;;;;15.43;6.43;;;;;;;9.84;82.92;99379.12;4422009;32;20088;-72
2022/01/04 10:05:22;;;;;;;9.85;5.55;;;;;;;10.39;80.50;99377.72;4421797;32;20111;-72
2022/01/04 10:08:00;;;;;;;9.30;5.75;;;;;;;10.67;81.00;99379.56;4431096;32;20128;-72
2022/01/04 10:10:28;;;;;;;10.48;4.80;;;;;;;10.99;77.80;99376.03;4430718;32;20155;-72
2022/01/04 10:13:01;;;;;;;6.47;4.55;;;;;;;11.13;77.44;99372.97;4423204;32;20160;-72
2022/01/04 10:15:36;;;;;;;6.65;4.40;;;;;;;11.29;76.11;99365.47;4422013;32;20128;-71
2022/01/04 10:18:25;;;;;;;9.85;4.85;;;;;;;11.04;76.97;99365.34;4423640;32;20084;-72
2022/01/04 10:20:59;;;;;;;9.27;4.60;;;;;;;10.66;78.42;99354.16;4421953;32;20156;-70
2022/01/04 10:23:26;;;;;;;6.40;4.28;;;;;;;10.47;79.43;99333.59;4423655;32;20136;-73
2022/01/04 10:26:05;;;;;;;8.23;4.40;;;;;;;10.53;79.04;99333.44;4428187;32;20121;-74
2022/01/04 10:28:41;;;;;;;8.70;4.50;;;;;;;10.64;79.56;99346.31;4424520;32;20450;-74
2022/01/04 10:31:12;;;;;;;6.72;4.22;;;;;;;10.74;79.65;99338.97;4427166;32;20180;-74
2022/01/04 10:33:40;;;;;;;5.78;4.75;;;;;;;10.68;79.24;99329.50;4422407;32;20101;-74
2022/01/04 10:36:12;;;;;;;8.05;5.05;;;;;;;10.84;79.68;99344.84;4434538;32;20089;-74
2022/01/04 10:38:48;;;;;;;7.37;4.10;;;;;;;11.10;78.69;99325.63;4434270;32;20085;-74
2022/01/04 10:41:15;;;;;;;8.00;4.30;;;;;;;11.18;78.08;99327.09;4429949;32;20567;-74
2022/01/04 10:43:47;;;;;;;6.07;4.60;;;;;;;11.13;77.87;99322.87;4433478;32;20106;-74
2022/01/04 10:46:21;;;;;;;4.35;3.85;;;;;;;11.10;77.96;99320.34;4418631;31;20093;-74
2022/01/04 10:48:50;;;;;;;7.75;4.35;;;;;;;10.60;79.80;99325.34;4423943;32;20128;-74
2022/01/04 10:51:21;;;;;;;8.02;4.10;;;;;;;10.79;79.70;99326.53;4428646;32;20760;-74
2022/01/04 10:53:57;;;;;;;8.60;4.65;;;;;;;10.94;79.26;99331.34;4412869;32;20113;-74
2022/01/04 10:56:27;;;;;;;6.97;4.45;;;;;;;11.09;79.50;99319.47;4425888;32;20089;-74
2022/01/04 10:58:56;;;;;;;6.65;4.22;;;;;;;11.07;79.85;99320.44;4427775;32;20081;-75
2022/01/04 11:01:29;;;;;;;8.75;4.00;;;;;;;10.90;80.10;99310.41;4429795;32;20131;-75
2022/01/04 11:04:00;;;;;;;6.53;4.50;;;;;;;10.87;80.90;99310.50;4426983;32;20456;-74
2022/01/04 11:06:30;;;;;;;5.28;3.92;;;;;;;11.01;80.57;99305.66;4428396;32;20096;-75
2022/01/04 11:08:58;;;;;;;5.75;4.00;;;;;;;10.91;80.90;99294.53;4434386;32;20085;-75
2022/01/04 11:11:25;;;;;;;4.28;3.60;;;;;;;10.82;81.38;99292.19;4431618;32;20097;-75
2022/01/04 11:13:53;;;;;;;9.30;3.58;;;;;;;10.56;83.05;99292.09;4430673;32;20097;-75
2022/01/04 11:16:25;;;;;;;7.05;3.72;;;;;;;10.65;82.10;99283.94;4430740;32;20745;-74
2022/01/04 11:18:54;;;;;;;8.10;3.72;;;;;;;10.28;84.10;99277.97;4427040;32;20086;-75
2022/01/04 11:21:35;;;;;;;7.15;4.00;;;;;;;10.22;84.02;99264.94;4422726;32;20092;-75
2022/01/04 11:24:04;;;;;;;7.95;4.07;;;;;;;10.07;85.11;99257.50;4428900;32;20493;-76
2022/01/04 11:26:33;;;;;;;4.95;3.50;;;;;;;10.01;85.79;99255.88;4430113;32;20089;-75
2022/01/04 11:29:00;;;;;;;4.78;3.30;;;;;;;9.95;85.16;99247.28;4433634;32;20097;-74
2022/01/04 11:31:46;;;;;;;5.90;3.22;;;;;;;9.92;85.24;99248.22;4429466;32;20767;-75
2022/01/04 11:34:35;;;;;;;5.18;3.50;;;;;;;9.80;85.94;99251.19;4423093;32;20129;-75
2022/01/04 11:37:03;;;;;;;5.82;3.00;;;;;;;9.77;86.14;99265.28;4429920;32;20085;-74
2022/01/04 11:39:32;;;;;;;6.43;3.65;;;;;;;9.73;86.29;99271.53;4437139;32;20168;-74